Thursday, November 23, 2017, 1:17 PM EST
Back to Local

KPSF, Pittsfield Municipal Airport

Location: Pittsfield, MA, United States Lat: 42.433
Local Time: 1:17 PM EST (18:17 GMT) Lon: -73.283
Time Zone: US/Eastern Elev: 1194 ft

Show me the last for .
Show Decoded

2017-11-23 12:54 METAR KPSF 231754Z AUTO 31006KT 10SM FEW110 02/M08 A2997 RMK AO2 SLP158
                 T00171083 10017 21033 58014 =
2017-11-23 11:54 METAR KPSF 231654Z AUTO 32008G17KT 10SM CLR 01/M08 A2999 RMK AO2 SLP165
                 T00111083 =
2017-11-23 10:54 METAR KPSF 231554Z AUTO 31008KT 10SM CLR 00/M08 A3002 RMK AO2 SLP176 T00001083 =
2017-11-23 09:54 METAR KPSF 231454Z AUTO 31012G18KT 10SM CLR M01/M08 A3002 RMK AO2 SLP175
                 T10111083 58003 =
2017-11-23 08:54 METAR KPSF 231354Z AUTO 32007KT 10SM CLR M02/M08 A3002 RMK AO2 SLP175 T10171083
                 =
2017-11-23 07:54 METAR KPSF 231254Z AUTO 29012KT 10SM SCT023 M03/M09 A3003 RMK AO2 SLP180
                 T10331089 =
2017-11-23 06:54 METAR KPSF 231154Z AUTO 30006KT 10SM OVC021 M03/M08 A3003 RMK AO2 SLP179 70002
                 T10331083 11006 21033 53004 =
2017-11-23 05:54 METAR KPSF 231054Z AUTO 30009KT 10SM OVC024 M03/M08 A3002 RMK AO2 SLP178
                 T10281078 =
2017-11-23 04:54 METAR KPSF 230954Z AUTO 30016G23KT 10SM BKN025 M02/M07 A3001 RMK AO2 SLP172
                 T10221072 =
2017-11-23 03:54 METAR KPSF 230854Z AUTO 27016KT 10SM OVC025 M02/M07 A3001 RMK AO2 SLP172
                 T10171067 51006 =
2017-11-23 02:54 METAR KPSF 230754Z AUTO 29013KT 10SM OVC025 M02/M06 A3001 RMK AO2 SLP170
                 T10171061 =
2017-11-23 01:54 METAR KPSF 230654Z AUTO 27013G19KT 10SM OVC027 M01/M07 A3000 RMK AO2 SLP168
                 T10111072 =
2017-11-23 00:54 METAR KPSF 230554Z AUTO 28014G23KT 10SM OVC026 M01/M07 A2999 RMK AO2 SLP163
                 T10061067 10011 21011 52005 =
2017-11-22 23:54 METAR KPSF 230454Z AUTO 30015G21KT 10SM BKN028 M01/M07 A2998 RMK AO2 PK WND
                 33026/0422 SLP158 T10111072 400831011 =
2017-11-22 23:39 METAR KPSF 230439Z AUTO 30015G21KT 10SM OVC029 M01/M08 A2999 RMK AO2 PK WND
                 33026/0422 T10061078 =
2017-11-22 22:54 METAR KPSF 230354Z AUTO 31013G22KT 10SM OVC033 M01/M08 A2999 RMK AO2 PK WND
                 30026/0322 SLP160 T10061078 =
2017-11-22 21:54 METAR KPSF 230254Z AUTO 29015G24KT 10SM OVC035 00/M07 A2998 RMK AO2 PK WND
                 27027/0234 SLP155 T00001072 53007 =
2017-11-22 20:54 METAR KPSF 230154Z AUTO 30009G24KT 10SM OVC036 01/M06 A2996 RMK AO2 PK WND
                 29026/0121 SLP151 T00111061 =
2017-11-22 20:06 METAR KPSF 230106Z AUTO 30011G25KT 10SM SCT024 SCT029 OVC035 01/M04 A2996 RMK
                 AO2 T00111044 =
2017-11-22 19:54 METAR KPSF 230054Z AUTO 29014G26KT 10SM BKN023 BKN029 OVC035 01/M04 A2996 RMK
                 AO2 PK WND 30026/0020 SLP149 T00111039 =
2017-11-22 19:50 METAR KPSF 230050Z AUTO 30018G26KT 10SM SCT021 BKN027 OVC035 01/M03 A2996 RMK
                 AO2 PK WND 30026/0020 =
2017-11-22 19:11 METAR KPSF 230011Z AUTO 31010G23KT 290V350 10SM SCT019 BKN038 01/M03 A2994 RMK
                 AO2 T00111033 =
2017-11-22 18:54 METAR KPSF 222354Z AUTO 29015G19KT 10SM BKN017 BKN021 OVC036 01/M03 A2994 RMK
                 AO2 SLP145 60000 T00111028 10033 20011 51012 =
2017-11-22 17:54 METAR KPSF 222254Z AUTO VRB06G15KT 10SM OVC017 02/M02 A2994 RMK AO2 SLP143
                 T00171022 =
2017-11-22 17:37 METAR KPSF 222237Z AUTO 31009G16KT 10SM BKN022 OVC029 02/M03 A2994 RMK AO2
                 T00171028 =
2017-11-22 16:54 METAR KPSF 222154Z AUTO 28012G19KT 10SM FEW028 FEW034 BKN060 02/M03 A2992 RMK
                 AO2 SLP135 T00221033 =
2017-11-22 16:06 METAR KPSF 222106Z AUTO 29013G20KT 10SM FEW029 BKN043 03/M02 A2990 RMK AO2
                 T00281022 =
2017-11-22 15:54 METAR KPSF 222054Z AUTO 31015G22KT 10SM BKN028 OVC041 03/M02 A2990 RMK AO2
                 SLP129 60000 T00281022 51012 =
2017-11-22 15:29 METAR KPSF 222029Z AUTO 29015G20KT 10SM BKN028 OVC036 03/M01 A2990 RMK AO2
                 T00281011 =
2017-11-22 15:12 METAR KPSF 222012Z AUTO 29017G24KT 10SM SCT020 BKN030 OVC036 03/M01 A2990 RMK
                 AO2 T00281006 =
2017-11-22 14:54 METAR KPSF 221954Z AUTO 29014G18KT 10SM BKN018 BKN023 OVC031 03/00 A2989 RMK AO2
                 SLP126 T00330000 =
2017-11-22 14:07 METAR KPSF 221907Z AUTO 30013G19KT 10SM OVC015 03/00 A2989 RMK AO2 T00330000 =
2017-11-22 13:54 METAR KPSF 221854Z AUTO 30009G20KT 10SM OVC013 03/01 A2988 RMK AO2 RAB1758E12
                 SLP121 P0000 T00330006 =
2017-11-22 13:20 METAR KPSF 221820Z AUTO 30011G22KT 10SM OVC006 03/01 A2987 RMK AO2 RAB1758E12
                 CIG 004V009 P0000 T00330011 =

Support USWX by starting your Amazon purchase here.